createdAt,value
2022-08-24T00:00:27.200Z,101544.00
2022-08-24T00:02:55.764Z,101542.00
2022-08-24T00:05:24.424Z,101550.00
2022-08-24T00:07:52.884Z,101550.00
2022-08-24T00:10:22.572Z,101551.00
2022-08-24T00:12:51.215Z,101552.00
2022-08-24T00:15:19.666Z,101547.00
2022-08-24T00:17:47.897Z,101544.00
2022-08-24T00:20:16.280Z,101550.00
2022-08-24T00:22:44.595Z,101540.00
2022-08-24T00:25:14.481Z,101546.00
2022-08-24T00:27:44.314Z,101540.00
2022-08-24T00:30:17.581Z,101560.00
2022-08-24T00:32:47.158Z,101560.00
2022-08-24T00:35:18.390Z,101566.00
2022-08-24T00:37:49.544Z,101562.00
2022-08-24T00:40:23.050Z,101557.00
2022-08-24T00:42:54.235Z,101558.00
2022-08-24T00:45:24.901Z,101550.00
2022-08-24T00:47:59.937Z,101563.00
2022-08-24T00:50:37.202Z,101558.00
2022-08-24T00:53:12.081Z,101554.00
2022-08-24T00:55:48.571Z,101554.00
2022-08-24T00:58:23.030Z,101552.00
2022-08-24T01:00:59.131Z,101539.00
2022-08-24T01:03:28.883Z,101562.00
2022-08-24T01:05:57.995Z,101565.00
2022-08-24T01:08:27.087Z,101556.00
2022-08-24T01:11:00.170Z,101559.00
2022-08-24T01:13:31.397Z,101550.00
2022-08-24T01:16:04.071Z,101563.00
2022-08-24T01:18:50.429Z,101567.00
2022-08-24T01:21:22.141Z,101571.00
2022-08-24T01:23:55.294Z,101548.00
2022-08-24T01:26:28.452Z,101570.00
2022-08-24T01:32:24.354Z,101570.00
2022-08-24T01:34:52.769Z,101568.00
2022-08-24T01:37:22.289Z,101566.00
2022-08-24T01:39:55.693Z,101574.00
2022-08-24T01:42:26.596Z,101573.00
2022-08-24T01:44:55.241Z,101529.00
2022-08-24T01:47:23.948Z,101569.00
2022-08-24T01:49:52.370Z,101560.00
2022-08-24T01:52:27.966Z,101577.00
2022-08-24T01:55:02.052Z,101573.00
2022-08-24T01:57:30.451Z,101534.00
2022-08-24T01:59:58.948Z,101582.00
2022-08-24T02:02:31.861Z,101567.00
2022-08-24T02:05:00.328Z,101575.00
2022-08-24T02:07:29.743Z,101570.00
2022-08-24T02:09:58.835Z,101570.00
2022-08-24T02:12:29.024Z,101544.00
2022-08-24T02:14:57.363Z,101541.00
2022-08-24T02:17:25.750Z,101563.00
2022-08-24T02:19:54.062Z,101531.00
2022-08-24T02:22:22.402Z,101571.00
2022-08-24T02:24:50.810Z,101549.00
2022-08-24T02:27:19.583Z,101544.00
2022-08-24T02:29:49.496Z,101574.00
2022-08-24T02:32:17.930Z,101581.00
2022-08-24T02:34:46.272Z,101577.00
2022-08-24T02:37:14.646Z,101564.00
2022-08-24T02:39:43.074Z,101579.00
2022-08-24T02:42:11.558Z,101577.00
2022-08-24T02:44:39.858Z,101560.00
2022-08-24T02:47:10.281Z,101563.00
2022-08-24T02:49:39.392Z,101574.00
2022-08-24T02:52:08.260Z,101570.00
2022-08-24T02:54:36.916Z,101577.00
2022-08-24T02:57:05.797Z,101563.00
2022-08-24T02:59:34.374Z,101576.00
2022-08-24T03:02:03.069Z,101568.00
2022-08-24T03:04:33.714Z,101579.00
2022-08-24T03:07:02.309Z,101575.00
2022-08-24T03:09:30.791Z,101570.00
2022-08-24T03:11:59.295Z,101573.00
2022-08-24T03:14:27.791Z,101565.00
2022-08-24T03:16:56.388Z,101573.00
2022-08-24T03:19:24.763Z,101536.00
2022-08-24T03:21:55.247Z,101588.00
2022-08-24T03:24:23.659Z,101532.00
2022-08-24T03:26:52.531Z,101559.00
2022-08-24T03:29:21.110Z,101586.00
2022-08-24T03:31:52.460Z,101530.00
2022-08-24T03:34:21.004Z,101587.00
2022-08-24T03:36:49.726Z,101588.00
2022-08-24T03:39:20.118Z,101579.00
2022-08-24T03:41:48.846Z,101566.00
2022-08-24T03:44:21.306Z,101559.00
2022-08-24T03:46:52.772Z,101563.00
2022-08-24T03:49:22.048Z,101590.00
2022-08-24T03:51:50.850Z,101537.00
2022-08-24T03:54:21.308Z,101588.00
2022-08-24T03:56:49.670Z,101557.00
2022-08-24T03:59:20.097Z,101546.00
2022-08-24T04:01:48.846Z,101571.00
2022-08-24T04:04:17.680Z,101593.00
2022-08-24T04:06:46.969Z,101584.00
2022-08-24T04:09:16.102Z,101580.00
2022-08-24T04:11:46.313Z,101553.00
2022-08-24T04:14:26.985Z,101563.00
2022-08-24T04:16:57.908Z,101533.00
2022-08-24T04:19:27.207Z,101568.00
2022-08-24T04:21:57.498Z,101583.00
2022-08-24T04:24:27.028Z,101549.00
2022-08-24T04:26:58.548Z,101562.00
2022-08-24T04:29:27.257Z,101585.00
2022-08-24T04:31:56.767Z,101592.00
2022-08-24T04:34:25.557Z,101601.00
2022-08-24T04:36:53.928Z,101571.00
2022-08-24T04:39:22.278Z,101559.00
2022-08-24T04:41:52.335Z,101595.00
2022-08-24T04:44:22.772Z,101580.00
2022-08-24T04:46:51.315Z,101606.00
2022-08-24T04:49:19.753Z,101603.00
2022-08-24T04:51:48.250Z,101613.00
2022-08-24T04:54:17.279Z,101590.00
2022-08-24T04:56:45.851Z,101616.00
2022-08-24T04:59:14.482Z,101619.00
2022-08-24T05:01:44.399Z,101600.00
2022-08-24T05:04:13.668Z,101623.00
2022-08-24T05:06:43.162Z,101614.00
2022-08-24T05:09:12.371Z,101627.00
2022-08-24T05:11:41.502Z,101603.00
2022-08-24T05:14:18.004Z,101588.00
2022-08-24T05:16:52.772Z,101614.00
2022-08-24T05:19:23.229Z,101609.00
2022-08-24T05:21:52.131Z,101618.00
2022-08-24T05:24:20.814Z,101589.00
2022-08-24T05:26:49.177Z,101608.00
2022-08-24T05:29:19.111Z,101594.00
2022-08-24T05:31:48.926Z,101647.00
2022-08-24T05:34:17.203Z,101629.00
2022-08-24T05:36:45.478Z,101644.00
2022-08-24T05:39:15.467Z,101640.00
2022-08-24T05:41:46.250Z,101637.00
2022-08-24T05:44:16.705Z,101647.00
2022-08-24T05:46:45.798Z,101644.00
2022-08-24T05:49:15.522Z,101642.00
2022-08-24T05:51:43.826Z,101641.00
2022-08-24T05:54:13.684Z,101635.00
2022-08-24T05:56:44.882Z,101636.00
2022-08-24T05:59:13.861Z,101648.00
2022-08-24T06:01:45.582Z,101649.00
2022-08-24T06:04:15.580Z,101645.00
2022-08-24T06:06:48.589Z,101643.00
2022-08-24T06:09:18.647Z,101651.00
2022-08-24T06:11:51.434Z,101642.00
2022-08-24T06:14:27.139Z,101654.00
2022-08-24T06:16:56.184Z,101660.00
2022-08-24T06:19:28.799Z,101663.00
2022-08-24T06:21:57.175Z,101671.00
2022-08-24T06:24:46.366Z,101677.00
2022-08-24T06:27:21.708Z,101676.00
2022-08-24T06:29:52.073Z,101672.00
2022-08-24T06:32:20.857Z,101678.00
2022-08-24T06:34:50.618Z,101669.00
2022-08-24T06:37:19.374Z,101670.00
2022-08-24T06:39:48.461Z,101685.00
2022-08-24T06:42:24.738Z,101681.00
2022-08-24T06:44:53.791Z,101685.00
2022-08-24T06:47:22.454Z,101672.00
2022-08-24T06:53:30.065Z,101694.00
2022-08-24T06:56:00.282Z,101682.00
2022-08-24T06:58:29.581Z,101651.00
2022-08-24T07:00:57.844Z,101675.00
2022-08-24T07:06:37.049Z,101692.00
2022-08-24T07:09:06.524Z,101695.00
2022-08-24T07:11:35.124Z,101692.00
2022-08-24T07:14:04.018Z,101690.00
2022-08-24T07:16:32.340Z,101690.00
2022-08-24T07:19:01.398Z,101694.00
2022-08-24T07:21:30.587Z,101691.00
2022-08-24T07:24:02.419Z,101695.00
2022-08-24T07:26:32.811Z,101709.00
2022-08-24T07:29:06.261Z,101712.00
2022-08-24T07:31:35.683Z,101716.00
2022-08-24T07:34:06.140Z,101712.00
2022-08-24T07:36:35.180Z,101711.00
2022-08-24T07:39:06.295Z,101705.00
2022-08-24T07:41:56.795Z,101713.00
2022-08-24T07:44:28.818Z,101727.00
2022-08-24T07:46:57.065Z,101721.00
2022-08-24T07:49:37.209Z,101723.00
2022-08-24T07:52:10.173Z,101729.00
2022-08-24T07:54:40.988Z,101726.00
2022-08-24T07:57:09.492Z,101725.00
2022-08-24T07:59:38.704Z,101710.00
2022-08-24T08:02:08.242Z,101727.00
2022-08-24T08:04:36.723Z,101739.00
2022-08-24T08:07:05.259Z,101735.00
2022-08-24T08:09:33.535Z,101735.00
2022-08-24T08:12:03.586Z,101732.00
2022-08-24T08:14:31.878Z,101736.00
2022-08-24T08:17:00.166Z,101741.00
2022-08-24T08:19:29.076Z,101743.00
2022-08-24T08:22:14.690Z,101744.00
2022-08-24T08:24:44.020Z,101739.00
2022-08-24T08:27:17.148Z,101741.00
2022-08-24T08:29:46.062Z,101746.00
2022-08-24T08:32:16.804Z,101746.00
2022-08-24T08:34:45.692Z,101754.00
2022-08-24T08:37:15.422Z,101747.00
2022-08-24T08:39:44.820Z,101753.00
2022-08-24T08:42:38.499Z,101753.00
2022-08-24T08:45:33.260Z,101756.00
2022-08-24T08:48:50.604Z,101757.00
2022-08-24T08:51:57.656Z,101758.00
2022-08-24T08:54:43.854Z,101760.00
2022-08-24T08:57:39.161Z,101753.00
2022-08-24T09:00:16.282Z,101758.00
2022-08-24T09:03:31.310Z,101760.00
2022-08-24T09:06:36.914Z,101759.00
2022-08-24T09:09:26.791Z,101770.00
2022-08-24T09:12:09.470Z,101759.00
2022-08-24T09:15:18.692Z,101752.00
2022-08-24T09:18:02.162Z,101768.00
2022-08-24T09:21:10.044Z,101766.00
2022-08-24T09:23:50.255Z,101755.00
2022-08-24T09:26:27.654Z,101764.00
2022-08-24T09:29:06.701Z,101750.00
2022-08-24T09:31:54.826Z,101755.00
2022-08-24T09:34:37.851Z,101751.00
2022-08-24T09:37:32.568Z,101738.00
2022-08-24T09:40:08.948Z,101759.00
2022-08-24T09:43:13.719Z,101758.00
2022-08-24T09:46:14.896Z,101750.00
2022-08-24T09:49:17.139Z,101760.00
2022-08-24T09:52:10.135Z,101760.00
2022-08-24T09:55:25.451Z,101756.00
2022-08-24T09:58:08.692Z,101758.00
2022-08-24T10:00:45.619Z,101751.00
2022-08-24T10:03:36.190Z,101756.00
2022-08-24T10:06:33.003Z,101761.00
2022-08-24T10:09:41.383Z,101747.00
2022-08-24T10:12:22.683Z,101742.00
2022-08-24T10:15:00.204Z,101743.00
2022-08-24T10:17:44.383Z,101744.00
2022-08-24T10:20:24.603Z,101744.00
2022-08-24T10:23:16.257Z,101735.00
2022-08-24T10:25:56.899Z,101736.00
2022-08-24T10:29:07.055Z,101725.00
2022-08-24T10:31:46.505Z,101744.00
2022-08-24T10:34:35.639Z,101737.00
2022-08-24T10:37:32.969Z,101728.00
2022-08-24T10:40:36.498Z,101743.00
2022-08-24T10:43:39.824Z,101737.00
2022-08-24T10:46:41.809Z,101734.00
2022-08-24T10:50:06.990Z,101736.00
2022-08-24T10:53:15.829Z,101730.00
2022-08-24T10:55:46.637Z,101735.00
2022-08-24T10:58:45.431Z,101725.00
2022-08-24T11:01:26.623Z,101734.00
2022-08-24T11:04:01.790Z,101720.00
2022-08-24T11:06:34.250Z,101726.00
2022-08-24T11:09:08.175Z,101721.00
2022-08-24T11:11:40.925Z,101719.00
2022-08-24T11:14:23.611Z,101725.00
2022-08-24T11:16:57.035Z,101720.00
2022-08-24T11:19:36.580Z,101721.00
2022-08-24T11:22:31.745Z,101726.00
2022-08-24T11:25:03.903Z,101731.00
2022-08-24T11:27:38.717Z,101719.00
2022-08-24T11:30:14.656Z,101718.00
2022-08-24T11:32:46.225Z,101712.00
2022-08-24T11:35:24.989Z,101704.00
2022-08-24T11:37:56.536Z,101718.00
2022-08-24T11:40:30.549Z,101724.00
2022-08-24T11:43:16.853Z,101722.00
2022-08-24T11:46:00.094Z,101714.00
2022-08-24T11:48:45.788Z,101718.00
2022-08-24T11:51:26.965Z,101713.00
2022-08-24T11:54:04.834Z,101715.00
2022-08-24T11:56:42.389Z,101708.00
2022-08-24T11:59:24.782Z,101715.00
2022-08-24T12:01:58.674Z,101712.00
2022-08-24T12:04:51.082Z,101706.00
2022-08-24T12:07:33.383Z,101706.00
2022-08-24T12:10:21.730Z,101705.00
2022-08-24T12:12:58.732Z,101693.00
2022-08-24T12:15:44.706Z,101699.00
2022-08-24T12:18:28.175Z,101693.00
2022-08-24T12:20:58.436Z,101701.00
2022-08-24T12:23:38.652Z,101702.00
2022-08-24T12:26:13.805Z,101700.00
2022-08-24T12:28:54.302Z,101703.00
2022-08-24T12:31:35.978Z,101700.00
2022-08-24T12:34:10.570Z,101699.00
2022-08-24T12:36:50.462Z,101703.00
2022-08-24T12:39:24.216Z,101701.00
2022-08-24T12:42:07.710Z,101707.00
2022-08-24T12:44:47.308Z,101700.00
2022-08-24T12:47:26.571Z,101702.00
2022-08-24T12:50:04.788Z,101694.00
2022-08-24T12:53:18.885Z,101698.00
2022-08-24T12:56:10.915Z,101695.00
2022-08-24T12:59:09.418Z,101692.00
2022-08-24T13:01:47.860Z,101696.00
2022-08-24T13:04:32.888Z,101693.00
2022-08-24T13:07:06.486Z,101693.00
2022-08-24T13:09:38.301Z,101688.00
2022-08-24T13:13:09.483Z,101685.00
2022-08-24T13:16:03.475Z,101686.00
2022-08-24T13:19:14.511Z,101682.00
2022-08-24T13:21:53.089Z,101682.00
2022-08-24T13:25:19.678Z,101688.00
2022-08-24T13:28:04.669Z,101668.00
2022-08-24T13:31:21.254Z,101679.00
2022-08-24T13:33:52.916Z,101688.00
2022-08-24T13:36:55.087Z,101682.00
2022-08-24T13:40:09.860Z,101680.00
2022-08-24T13:43:12.886Z,101682.00
2022-08-24T13:45:47.959Z,101677.00
2022-08-24T13:48:32.826Z,101679.00
2022-08-24T13:51:36.328Z,101676.00
2022-08-24T13:54:23.187Z,101679.00
2022-08-24T13:57:21.379Z,101682.00
2022-08-24T14:00:17.935Z,101682.00
2022-08-24T14:03:03.099Z,101681.00
2022-08-24T14:05:38.409Z,101677.00
2022-08-24T14:08:26.938Z,101675.00
2022-08-24T14:11:09.541Z,101683.00
2022-08-24T14:13:53.834Z,101680.00
2022-08-24T14:17:19.413Z,101673.00
2022-08-24T14:19:59.059Z,101673.00
2022-08-24T14:22:35.551Z,101672.00
2022-08-24T14:25:20.963Z,101680.00
2022-08-24T14:27:53.379Z,101678.00
2022-08-24T14:30:54.342Z,101674.00
2022-08-24T14:33:29.758Z,101671.00
2022-08-24T14:36:16.278Z,101669.00
2022-08-24T14:39:14.460Z,101663.00
2022-08-24T14:41:53.877Z,101664.00
2022-08-24T14:44:49.876Z,101670.00
2022-08-24T14:47:33.736Z,101664.00
2022-08-24T14:50:15.448Z,101670.00
2022-08-24T14:53:07.383Z,101664.00
2022-08-24T14:55:43.248Z,101652.00
2022-08-24T14:58:28.999Z,101656.00
2022-08-24T15:01:40.585Z,101655.00
2022-08-24T15:04:41.378Z,101655.00
2022-08-24T15:07:29.567Z,101641.00
2022-08-24T15:10:00.578Z,101653.00
2022-08-24T15:12:37.914Z,101653.00
2022-08-24T15:15:15.215Z,101658.00
2022-08-24T15:17:59.099Z,101657.00
2022-08-24T15:21:22.937Z,101645.00
2022-08-24T15:24:10.057Z,101646.00
2022-08-24T15:27:00.734Z,101646.00
2022-08-24T15:29:34.136Z,101642.00
2022-08-24T15:32:08.221Z,101641.00
2022-08-24T15:34:48.862Z,101635.00
2022-08-24T15:37:27.675Z,101648.00
2022-08-24T15:39:55.918Z,101626.00
2022-08-24T15:42:24.383Z,101645.00
2022-08-24T15:44:53.001Z,101644.00
2022-08-24T15:47:31.106Z,101637.00
2022-08-24T15:50:04.726Z,101640.00
2022-08-24T15:52:48.595Z,101640.00
2022-08-24T15:55:39.518Z,101643.00
2022-08-24T15:58:32.186Z,101640.00
2022-08-24T16:01:38.604Z,101636.00
2022-08-24T16:04:10.499Z,101633.00
2022-08-24T16:06:45.232Z,101632.00
2022-08-24T16:09:37.605Z,101634.00
2022-08-24T16:12:11.139Z,101639.00
2022-08-24T16:14:47.061Z,101641.00
2022-08-24T16:17:30.479Z,101638.00
2022-08-24T16:20:01.962Z,101640.00
2022-08-24T16:22:36.691Z,101630.00
2022-08-24T16:25:22.894Z,101634.00
2022-08-24T16:28:09.813Z,101630.00
2022-08-24T16:30:44.484Z,101604.00
2022-08-24T16:33:44.639Z,101639.00
2022-08-24T16:36:17.692Z,101634.00
2022-08-24T16:38:51.062Z,101633.00
2022-08-24T16:41:22.866Z,101606.00
2022-08-24T16:43:51.171Z,101629.00
2022-08-24T16:46:22.886Z,101634.00
2022-08-24T16:48:53.939Z,101634.00
2022-08-24T16:51:24.360Z,101638.00
2022-08-24T16:53:54.340Z,101643.00
2022-08-24T16:56:23.410Z,101639.00
2022-08-24T16:58:52.662Z,101639.00
2022-08-24T17:01:20.929Z,101635.00
2022-08-24T17:03:49.298Z,101637.00
2022-08-24T17:06:18.899Z,101640.00
2022-08-24T17:08:51.069Z,101636.00
2022-08-24T17:11:20.659Z,101630.00
2022-08-24T17:13:50.249Z,101624.00
2022-08-24T17:16:20.832Z,101632.00
2022-08-24T17:18:49.325Z,101634.00
2022-08-24T17:21:18.079Z,101634.00
2022-08-24T17:23:47.512Z,101626.00
2022-08-24T17:26:20.398Z,101617.00
2022-08-24T17:28:54.458Z,101627.00
2022-08-24T17:31:24.697Z,101631.00
2022-08-24T17:33:53.327Z,101628.00
2022-08-24T17:36:25.017Z,101625.00
2022-08-24T17:38:56.340Z,101627.00
2022-08-24T17:41:27.196Z,101629.00
2022-08-24T17:43:57.209Z,101625.00
2022-08-24T17:46:25.650Z,101637.00
2022-08-24T17:48:53.845Z,101631.00
2022-08-24T17:51:22.061Z,101631.00
2022-08-24T17:53:50.275Z,101633.00
2022-08-24T17:56:19.262Z,101634.00
2022-08-24T17:59:14.304Z,101641.00
2022-08-24T18:01:44.522Z,101635.00
2022-08-24T18:04:12.871Z,101648.00
2022-08-24T18:06:41.402Z,101635.00
2022-08-24T18:09:26.749Z,101651.00
2022-08-24T18:11:54.938Z,101650.00
2022-08-24T18:14:23.746Z,101662.00
2022-08-24T18:16:54.419Z,101661.00
2022-08-24T18:19:26.283Z,101647.00
2022-08-24T18:21:54.811Z,101661.00
2022-08-24T18:24:23.456Z,101662.00
2022-08-24T18:26:52.585Z,101666.00
2022-08-24T18:29:23.786Z,101666.00
2022-08-24T18:31:53.416Z,101666.00
2022-08-24T18:34:22.714Z,101665.00
2022-08-24T18:36:51.389Z,101666.00
2022-08-24T18:39:20.291Z,101670.00
2022-08-24T18:41:49.774Z,101676.00
2022-08-24T18:44:20.763Z,101673.00
2022-08-24T18:46:49.440Z,101671.00
2022-08-24T18:49:21.142Z,101680.00
2022-08-24T18:51:50.521Z,101683.00
2022-08-24T18:54:22.131Z,101685.00
2022-08-24T18:56:50.688Z,101683.00
2022-08-24T18:59:21.199Z,101687.00
2022-08-24T19:02:09.641Z,101688.00
2022-08-24T19:04:45.145Z,101697.00
2022-08-24T19:07:14.006Z,101685.00
2022-08-24T19:09:42.623Z,101698.00
2022-08-24T19:12:11.546Z,101674.00
2022-08-24T19:14:43.352Z,101701.00
2022-08-24T19:17:14.152Z,101691.00
2022-08-24T19:19:45.708Z,101702.00
2022-08-24T19:22:13.971Z,101701.00
2022-08-24T19:24:42.921Z,101692.00
2022-08-24T19:27:11.526Z,101703.00
2022-08-24T19:29:55.187Z,101705.00
2022-08-24T19:32:29.041Z,101701.00
2022-08-24T19:35:00.483Z,101706.00
2022-08-24T19:37:28.825Z,101699.00
2022-08-24T19:39:57.860Z,101705.00
2022-08-24T19:42:27.770Z,101698.00
2022-08-24T19:45:13.637Z,101700.00
2022-08-24T19:47:41.902Z,101696.00
2022-08-24T19:50:14.362Z,101698.00
2022-08-24T19:52:48.550Z,101685.00
2022-08-24T19:55:17.319Z,101708.00
2022-08-24T19:57:51.327Z,101696.00
2022-08-24T20:00:30.515Z,101699.00
2022-08-24T20:03:00.784Z,101691.00
2022-08-24T20:05:30.617Z,101686.00
2022-08-24T20:08:00.494Z,101704.00
2022-08-24T20:10:28.855Z,101688.00
2022-08-24T20:12:57.064Z,101685.00
2022-08-24T20:15:26.279Z,101698.00
2022-08-24T20:17:57.560Z,101702.00
2022-08-24T20:20:29.301Z,101694.00
2022-08-24T20:23:00.332Z,101701.00
2022-08-24T20:25:28.634Z,101706.00
2022-08-24T20:28:25.360Z,101705.00
2022-08-24T20:30:47.721Z,101713.00
2022-08-24T20:33:18.609Z,101702.00
2022-08-24T20:35:48.765Z,101706.00
2022-08-24T20:38:20.349Z,101704.00
2022-08-24T20:40:50.542Z,101697.00
2022-08-24T20:43:19.126Z,101696.00
2022-08-24T20:45:47.716Z,101696.00
2022-08-24T20:48:17.373Z,101696.00
2022-08-24T20:50:47.336Z,101696.00
2022-08-24T20:53:15.505Z,101696.00
2022-08-24T20:55:43.803Z,101691.00
2022-08-24T20:58:12.200Z,101696.00
2022-08-24T21:00:44.077Z,101697.00
2022-08-24T21:03:15.924Z,101696.00
2022-08-24T21:05:44.691Z,101693.00
2022-08-24T21:08:15.638Z,101692.00
2022-08-24T21:10:44.651Z,101682.00
2022-08-24T21:13:13.813Z,101683.00
2022-08-24T21:15:42.462Z,101685.00
2022-08-24T21:18:11.401Z,101687.00
2022-08-24T21:20:44.479Z,101682.00
2022-08-24T21:23:20.885Z,101678.00
2022-08-24T21:25:49.127Z,101689.00
2022-08-24T21:28:19.506Z,101687.00
2022-08-24T21:30:47.848Z,101684.00
2022-08-24T21:33:33.537Z,101690.00
2022-08-24T21:36:01.753Z,101670.00
2022-08-24T21:38:32.694Z,101680.00
2022-08-24T21:41:01.231Z,101677.00
2022-08-24T21:43:30.877Z,101678.00
2022-08-24T21:45:59.074Z,101681.00
2022-08-24T21:48:27.365Z,101672.00
2022-08-24T21:50:55.658Z,101677.00
2022-08-24T21:53:23.929Z,101689.00
2022-08-24T21:55:58.677Z,101685.00
2022-08-24T21:58:27.333Z,101682.00
2022-08-24T22:00:55.931Z,101678.00
2022-08-24T22:03:31.458Z,101682.00
2022-08-24T22:06:02.921Z,101668.00
2022-08-24T22:08:31.125Z,101681.00
2022-08-24T22:11:01.129Z,101682.00
2022-08-24T22:13:29.409Z,101672.00
2022-08-24T22:15:57.683Z,101675.00
2022-08-24T22:18:25.939Z,101675.00
2022-08-24T22:20:54.255Z,101673.00
2022-08-24T22:23:24.099Z,101681.00
2022-08-24T22:25:53.447Z,101679.00
2022-08-24T22:28:24.278Z,101673.00
2022-08-24T22:30:52.566Z,101661.00
2022-08-24T22:33:20.980Z,101680.00
2022-08-24T22:35:50.351Z,101667.00
2022-08-24T22:38:18.858Z,101665.00
2022-08-24T22:40:47.445Z,101659.00
2022-08-24T22:43:15.618Z,101660.00
2022-08-24T22:45:45.320Z,101659.00
2022-08-24T22:48:13.523Z,101654.00
2022-08-24T22:50:45.896Z,101644.00
2022-08-24T22:53:14.473Z,101647.00
2022-08-24T22:55:42.658Z,101641.00
2022-08-24T22:58:10.909Z,101647.00
2022-08-24T23:00:40.593Z,101656.00
2022-08-24T23:03:10.165Z,101652.00
2022-08-24T23:05:38.346Z,101653.00
2022-08-24T23:08:06.597Z,101646.00
2022-08-24T23:10:35.159Z,101649.00
2022-08-24T23:13:03.560Z,101649.00
2022-08-24T23:15:32.035Z,101651.00
2022-08-24T23:18:20.322Z,101647.00
2022-08-24T23:20:48.912Z,101652.00
2022-08-24T23:23:17.582Z,101647.00
2022-08-24T23:25:46.245Z,101652.00
2022-08-24T23:28:14.431Z,101651.00
2022-08-24T23:30:42.757Z,101654.00
2022-08-24T23:33:11.069Z,101647.00
2022-08-24T23:35:39.317Z,101644.00
2022-08-24T23:38:08.959Z,101633.00
2022-08-24T23:40:41.778Z,101623.00
2022-08-24T23:43:10.105Z,101640.00
2022-08-24T23:45:38.958Z,101630.00
2022-08-24T23:48:08.246Z,101632.00
2022-08-24T23:50:36.446Z,101642.00
2022-08-24T23:53:04.700Z,101642.00
2022-08-24T23:55:34.519Z,101642.00
2022-08-24T23:58:03.982Z,101639.00
